createdAt,value
2018-08-09T00:00:15.094Z,0.00
2018-08-09T00:01:15.090Z,0.00
2018-08-09T00:02:15.093Z,0.00
2018-08-09T00:03:15.095Z,0.00
2018-08-09T00:04:15.088Z,0.00
2018-08-09T00:05:15.091Z,0.00
2018-08-09T00:06:15.082Z,0.00
2018-08-09T00:07:15.080Z,0.00
2018-08-09T00:08:15.077Z,0.00
2018-08-09T00:09:15.081Z,0.00
2018-08-09T00:10:15.077Z,0.00
2018-08-09T00:11:15.076Z,0.00
2018-08-09T00:12:15.079Z,0.00
2018-08-09T00:13:15.073Z,0.00
2018-08-09T00:14:15.071Z,0.00
2018-08-09T00:15:15.066Z,0.00
2018-08-09T00:16:15.069Z,0.00
2018-08-09T00:17:15.064Z,0.00
2018-08-09T00:18:15.063Z,0.00
2018-08-09T00:19:15.063Z,0.00
2018-08-09T00:20:15.061Z,0.00
2018-08-09T00:21:15.058Z,0.00
2018-08-09T00:22:15.057Z,0.00
2018-08-09T00:23:15.053Z,0.00
2018-08-09T00:24:15.054Z,0.00
2018-08-09T00:25:15.054Z,0.00
2018-08-09T00:26:15.052Z,0.00
2018-08-09T00:27:15.048Z,0.00
2018-08-09T00:28:15.050Z,0.00
2018-08-09T00:29:15.041Z,0.00
2018-08-09T00:30:15.043Z,0.00
2018-08-09T00:31:15.036Z,0.00
2018-08-09T00:32:15.039Z,0.00
2018-08-09T00:33:15.036Z,0.00
2018-08-09T00:34:15.035Z,0.00
2018-08-09T00:35:15.033Z,0.00
2018-08-09T00:36:15.032Z,0.00
2018-08-09T00:37:15.030Z,0.00
2018-08-09T00:38:15.023Z,0.00
2018-08-09T00:39:15.024Z,0.00
2018-08-09T00:40:15.022Z,0.00
2018-08-09T00:41:15.029Z,0.00
2018-08-09T00:42:15.019Z,0.00
2018-08-09T00:43:15.019Z,0.00
2018-08-09T00:44:15.015Z,0.00
2018-08-09T00:45:15.010Z,0.00
2018-08-09T00:46:15.034Z,0.00
2018-08-09T00:47:15.010Z,0.00
2018-08-09T00:48:15.013Z,0.00
2018-08-09T00:49:15.009Z,0.00
2018-08-09T00:50:15.023Z,0.00
2018-08-09T00:51:15.003Z,0.00
2018-08-09T00:52:14.997Z,0.00
2018-08-09T00:53:14.996Z,0.00
2018-08-09T00:54:14.998Z,0.00
2018-08-09T00:55:14.992Z,0.00
2018-08-09T00:56:14.992Z,0.00
2018-08-09T00:57:14.990Z,0.00
2018-08-09T00:58:14.988Z,0.00
2018-08-09T00:59:14.985Z,0.00
2018-08-09T01:00:14.983Z,0.00
2018-08-09T01:01:14.984Z,0.00
2018-08-09T01:02:14.981Z,0.00
2018-08-09T01:03:14.986Z,0.00
2018-08-09T01:04:14.982Z,0.00
2018-08-09T01:05:14.976Z,0.00
2018-08-09T01:06:14.971Z,0.00
2018-08-09T01:07:14.973Z,0.00
2018-08-09T01:08:14.972Z,0.00
2018-08-09T01:09:14.966Z,0.00
2018-08-09T01:10:14.973Z,0.00
2018-08-09T01:11:14.963Z,0.00
2018-08-09T01:12:14.963Z,0.00
2018-08-09T01:13:14.959Z,0.00
2018-08-09T01:14:14.956Z,0.00
2018-08-09T01:15:14.958Z,0.00
2018-08-09T01:16:14.950Z,0.00
2018-08-09T01:17:14.952Z,0.00
2018-08-09T01:18:14.961Z,0.00
2018-08-09T01:19:14.970Z,0.00
2018-08-09T01:20:14.943Z,0.00
2018-08-09T01:21:14.946Z,0.00
2018-08-09T01:22:14.942Z,0.00
2018-08-09T01:23:14.943Z,0.00
2018-08-09T01:24:35.970Z,0.00
2018-08-09T01:25:14.942Z,0.00
2018-08-09T01:26:14.936Z,0.00
2018-08-09T01:27:14.934Z,0.00
2018-08-09T01:28:14.940Z,0.00
2018-08-09T01:29:14.933Z,0.00
2018-08-09T01:30:14.932Z,0.00
2018-08-09T01:31:14.927Z,0.00
2018-08-09T01:32:14.930Z,0.00
2018-08-09T01:33:14.924Z,0.00
2018-08-09T01:34:14.919Z,0.00
2018-08-09T01:35:14.919Z,0.00
2018-08-09T01:36:14.924Z,0.00
2018-08-09T01:37:14.918Z,0.00
2018-08-09T01:38:14.917Z,0.00
2018-08-09T01:39:14.917Z,0.00
2018-08-09T01:40:14.906Z,0.00
2018-08-09T01:41:14.906Z,0.00
2018-08-09T01:42:14.905Z,0.00
2018-08-09T01:43:14.904Z,0.00
2018-08-09T01:44:14.900Z,0.00
2018-08-09T01:45:14.907Z,0.00
2018-08-09T01:46:14.899Z,0.00
2018-08-09T01:47:14.898Z,0.00
2018-08-09T01:48:14.895Z,0.00
2018-08-09T01:49:14.892Z,0.00
2018-08-09T01:50:14.891Z,0.00
2018-08-09T01:51:14.895Z,0.00
2018-08-09T01:52:14.884Z,0.00
2018-08-09T01:53:14.886Z,0.00
2018-08-09T01:54:14.884Z,0.00
2018-08-09T01:55:14.878Z,0.00
2018-08-09T01:56:14.879Z,0.00
2018-08-09T01:57:14.874Z,0.00
2018-08-09T01:58:14.873Z,0.00
2018-08-09T01:59:14.874Z,0.00
2018-08-09T02:00:14.871Z,0.00
2018-08-09T02:01:14.871Z,0.00
2018-08-09T02:02:14.871Z,0.00
2018-08-09T02:03:14.861Z,0.00
2018-08-09T02:04:14.861Z,0.00
2018-08-09T02:05:14.861Z,0.00
2018-08-09T02:06:14.875Z,0.00
2018-08-09T02:07:14.875Z,0.00
2018-08-09T02:08:14.857Z,0.00
2018-08-09T02:09:14.850Z,0.00
2018-08-09T02:10:14.852Z,0.00
2018-08-09T02:11:14.846Z,0.00
2018-08-09T02:12:14.852Z,0.00
2018-08-09T02:13:14.847Z,0.00
2018-08-09T02:14:14.845Z,0.00
2018-08-09T02:15:14.838Z,0.00
2018-08-09T02:16:14.837Z,0.00
2018-08-09T02:17:14.876Z,0.00
2018-08-09T02:18:14.830Z,0.00
2018-08-09T02:19:14.830Z,0.00
2018-08-09T02:20:14.831Z,0.00
2018-08-09T02:21:14.829Z,0.00
2018-08-09T02:22:14.825Z,0.00
2018-08-09T02:23:14.843Z,0.00
2018-08-09T02:24:14.818Z,0.00
2018-08-09T02:25:14.819Z,0.00
2018-08-09T02:26:14.823Z,0.00
2018-08-09T02:27:14.815Z,0.00
2018-08-09T02:28:14.814Z,0.00
2018-08-09T02:29:14.811Z,0.00
2018-08-09T02:30:14.807Z,0.00
2018-08-09T02:31:14.807Z,0.00
2018-08-09T02:32:14.805Z,0.00
2018-08-09T02:33:14.801Z,0.00
2018-08-09T02:34:14.798Z,0.00
2018-08-09T02:35:14.796Z,0.00
2018-08-09T02:36:14.797Z,0.00
2018-08-09T02:37:14.795Z,0.00
2018-08-09T02:38:14.788Z,0.00
2018-08-09T02:39:14.786Z,0.00
2018-08-09T02:40:14.786Z,0.00
2018-08-09T02:41:14.789Z,0.00
2018-08-09T02:42:14.787Z,0.00
2018-08-09T02:43:14.784Z,0.00
2018-08-09T02:44:14.778Z,0.00
2018-08-09T02:45:14.779Z,0.00
2018-08-09T02:46:14.774Z,0.00
2018-08-09T02:47:14.770Z,0.00
2018-08-09T02:48:14.773Z,0.00
2018-08-09T02:49:14.763Z,0.00
2018-08-09T02:50:14.762Z,0.00
2018-08-09T02:51:14.761Z,0.00
2018-08-09T02:52:14.754Z,0.00
2018-08-09T02:53:14.756Z,0.00
2018-08-09T02:54:14.755Z,0.00
2018-08-09T02:55:14.749Z,0.00
2018-08-09T02:56:14.755Z,0.00
2018-08-09T02:57:14.750Z,0.00
2018-08-09T02:58:14.748Z,0.00
2018-08-09T02:59:14.744Z,0.00
2018-08-09T03:00:14.737Z,0.00
2018-08-09T03:01:14.743Z,0.00
2018-08-09T03:02:14.731Z,0.00
2018-08-09T03:03:14.730Z,0.00
2018-08-09T03:04:14.728Z,0.00
2018-08-09T03:05:14.744Z,0.00
2018-08-09T03:06:14.728Z,0.00
2018-08-09T03:07:14.720Z,0.00
2018-08-09T03:08:14.721Z,0.00
2018-08-09T03:09:14.719Z,0.00
2018-08-09T03:10:14.718Z,0.00
2018-08-09T03:11:14.717Z,0.00
2018-08-09T03:12:14.708Z,0.00
2018-08-09T03:13:14.753Z,0.00
2018-08-09T03:14:14.704Z,0.00
2018-08-09T03:15:14.704Z,0.00
2018-08-09T03:16:14.703Z,0.00
2018-08-09T03:17:14.735Z,0.00
2018-08-09T03:18:14.698Z,0.00
2018-08-09T03:19:14.705Z,0.00
2018-08-09T03:20:14.694Z,0.00
2018-08-09T03:21:14.690Z,0.00
2018-08-09T03:22:14.684Z,0.00
2018-08-09T03:23:14.682Z,0.00
2018-08-09T03:24:14.721Z,0.00
2018-08-09T03:25:14.681Z,0.00
2018-08-09T03:26:14.685Z,0.00
2018-08-09T03:27:14.678Z,0.00
2018-08-09T03:28:14.672Z,0.00
2018-08-09T03:29:14.673Z,0.00
2018-08-09T03:30:14.669Z,4.00
2018-08-09T03:31:14.665Z,4.00
2018-08-09T03:32:14.662Z,4.00
2018-08-09T03:33:14.662Z,4.00
2018-08-09T03:34:14.654Z,4.00
2018-08-09T03:35:14.655Z,4.00
2018-08-09T03:36:14.655Z,4.00
2018-08-09T03:37:14.651Z,8.00
2018-08-09T03:38:14.655Z,8.00
2018-08-09T03:39:14.647Z,12.00
2018-08-09T03:40:14.645Z,12.00
2018-08-09T03:41:14.646Z,12.00
2018-08-09T03:42:14.639Z,16.00
2018-08-09T03:43:14.643Z,16.00
2018-08-09T03:44:14.634Z,20.00
2018-08-09T03:45:14.627Z,24.00
2018-08-09T03:46:14.628Z,28.00
2018-08-09T03:47:14.634Z,32.00
2018-08-09T03:48:14.641Z,36.00
2018-08-09T03:49:14.642Z,40.00
2018-08-09T03:50:14.624Z,48.00
2018-08-09T03:51:14.621Z,56.00
2018-08-09T03:52:14.623Z,60.00
2018-08-09T03:53:14.613Z,64.00
2018-08-09T03:54:14.605Z,72.00
2018-08-09T03:55:14.601Z,84.00
2018-08-09T03:56:14.603Z,92.00
2018-08-09T03:57:14.598Z,104.00
2018-08-09T03:58:14.654Z,116.00
2018-08-09T03:59:14.598Z,128.00
2018-08-09T04:00:14.592Z,136.00
2018-08-09T04:01:14.598Z,152.00
2018-08-09T04:02:14.595Z,164.00
2018-08-09T04:03:14.596Z,180.00
2018-08-09T04:04:14.587Z,196.00
2018-08-09T04:05:14.577Z,212.00
2018-08-09T04:06:14.575Z,232.00
2018-08-09T04:07:14.570Z,248.00
2018-08-09T04:08:14.573Z,264.00
2018-08-09T04:09:14.573Z,284.00
2018-08-09T04:10:14.570Z,308.00
2018-08-09T04:11:14.564Z,328.00
2018-08-09T04:12:14.564Z,344.00
2018-08-09T04:13:14.562Z,368.00
2018-08-09T04:14:14.562Z,392.00
2018-08-09T04:15:14.557Z,420.00
2018-08-09T04:16:14.551Z,448.00
2018-08-09T04:17:14.553Z,480.00
2018-08-09T04:18:14.543Z,508.00
2018-08-09T04:19:14.543Z,536.00
2018-08-09T04:20:14.561Z,568.00
2018-08-09T04:21:14.542Z,596.00
2018-08-09T04:22:14.541Z,624.00
2018-08-09T04:23:14.536Z,660.00
2018-08-09T04:24:14.534Z,688.00
2018-08-09T04:25:14.528Z,712.00
2018-08-09T04:26:14.522Z,740.00
2018-08-09T04:27:14.522Z,772.00
2018-08-09T04:28:14.523Z,804.00
2018-08-09T04:29:14.518Z,832.00
2018-08-09T04:30:14.516Z,860.00
2018-08-09T04:31:14.514Z,900.00
2018-08-09T04:32:14.508Z,928.00
2018-08-09T04:33:14.512Z,936.00
2018-08-09T04:34:14.501Z,956.00
2018-08-09T04:35:14.500Z,992.00
2018-08-09T04:36:14.501Z,1048.00
2018-08-09T04:37:14.501Z,1096.00
2018-08-09T04:38:14.497Z,1128.00
2018-08-09T04:39:14.492Z,1148.00
2018-08-09T04:40:14.491Z,1168.00
2018-08-09T04:41:14.487Z,1244.00
2018-08-09T04:42:14.485Z,1360.00
2018-08-09T04:43:14.485Z,1420.00
2018-08-09T04:44:14.501Z,1428.00
2018-08-09T04:45:14.478Z,1480.00
2018-08-09T04:46:14.478Z,1544.00
2018-08-09T04:47:14.471Z,1576.00
2018-08-09T04:48:14.470Z,1588.00
2018-08-09T04:49:14.503Z,1628.00
2018-08-09T04:50:14.468Z,1692.00
2018-08-09T04:51:14.465Z,1732.00
2018-08-09T04:52:14.461Z,1760.00
2018-08-09T04:53:14.460Z,1748.00
2018-08-09T04:54:14.459Z,1696.00
2018-08-09T04:55:14.452Z,1672.00
2018-08-09T04:56:14.476Z,1732.00
2018-08-09T04:57:14.449Z,1840.00
2018-08-09T04:58:14.502Z,1868.00
2018-08-09T04:59:14.445Z,1684.00
2018-08-09T05:00:14.443Z,1400.00
2018-08-09T05:01:14.438Z,1220.00
2018-08-09T05:02:14.434Z,1080.00
2018-08-09T05:03:14.431Z,972.00
2018-08-09T05:04:14.432Z,948.00
2018-08-09T05:05:14.427Z,992.00
2018-08-09T05:06:14.430Z,1024.00
2018-08-09T05:07:14.429Z,960.00
2018-08-09T05:08:14.446Z,932.00
2018-08-09T05:09:14.420Z,952.00
2018-08-09T05:10:14.466Z,992.00
2018-08-09T05:11:14.412Z,1048.00
2018-08-09T05:12:14.413Z,1096.00
2018-08-09T05:13:14.409Z,1120.00
2018-08-09T05:14:14.407Z,1144.00
2018-08-09T05:15:14.412Z,1164.00
2018-08-09T05:16:14.405Z,1208.00
2018-08-09T05:17:14.401Z,1160.00
2018-08-09T05:18:14.399Z,1052.00
2018-08-09T05:19:14.393Z,1072.00
2018-08-09T05:20:14.394Z,1212.00
2018-08-09T05:21:14.392Z,1340.00
2018-08-09T05:22:14.390Z,1372.00
2018-08-09T05:23:14.448Z,1292.00
2018-08-09T05:24:14.383Z,1184.00
2018-08-09T05:25:14.379Z,1136.00
2018-08-09T05:26:14.381Z,1060.00
2018-08-09T05:27:14.378Z,1004.00
2018-08-09T05:28:14.385Z,1016.00
2018-08-09T05:29:14.377Z,1016.00
2018-08-09T05:30:14.372Z,940.00
2018-08-09T05:31:14.395Z,940.00
2018-08-09T05:32:14.386Z,1000.00
2018-08-09T05:33:14.362Z,980.00
2018-08-09T05:34:14.367Z,920.00
2018-08-09T05:35:14.359Z,876.00
2018-08-09T05:36:14.357Z,896.00
2018-08-09T05:37:14.358Z,980.00
2018-08-09T05:38:14.349Z,1060.00
2018-08-09T05:39:14.347Z,1164.00
2018-08-09T05:40:14.359Z,1240.00
2018-08-09T05:41:14.352Z,1296.00
2018-08-09T05:42:14.350Z,1440.00
2018-08-09T05:43:14.348Z,1596.00
2018-08-09T05:44:14.462Z,1808.00
2018-08-09T05:45:14.357Z,2092.00
2018-08-09T05:46:14.337Z,2268.00
2018-08-09T05:47:14.334Z,2500.00
2018-08-09T05:48:14.334Z,2964.00
2018-08-09T05:49:14.330Z,3560.00
2018-08-09T05:50:14.328Z,4156.00
2018-08-09T05:51:14.345Z,4616.00
2018-08-09T05:52:14.340Z,4728.00
2018-08-09T05:53:14.383Z,4560.00
2018-08-09T05:54:14.322Z,4780.00
2018-08-09T05:55:14.318Z,4888.00
2018-08-09T05:56:14.317Z,4620.00
2018-08-09T05:57:14.313Z,4064.00
2018-08-09T05:58:14.309Z,3648.00
2018-08-09T05:59:14.325Z,3368.00
2018-08-09T06:00:14.306Z,3228.00
2018-08-09T06:01:14.310Z,3224.00
2018-08-09T06:02:14.304Z,3304.00
2018-08-09T06:03:14.302Z,3152.00
2018-08-09T06:04:14.316Z,3052.00
2018-08-09T06:05:14.306Z,3304.00
2018-08-09T06:06:14.302Z,4148.00
2018-08-09T06:07:14.295Z,5304.00
2018-08-09T06:08:14.295Z,5620.00
2018-08-09T06:09:14.296Z,5512.00
2018-08-09T06:10:14.284Z,5164.00
2018-08-09T06:11:14.283Z,4632.00
2018-08-09T06:12:14.284Z,3844.00
2018-08-09T06:13:14.281Z,3096.00
2018-08-09T06:14:14.293Z,2924.00
2018-08-09T06:15:14.293Z,2948.00
2018-08-09T06:16:14.287Z,2888.00
2018-08-09T06:17:14.279Z,2912.00
2018-08-09T06:18:14.272Z,2796.00
2018-08-09T06:19:14.284Z,2624.00
2018-08-09T06:20:14.271Z,2504.00
2018-08-09T06:21:14.265Z,2604.00
2018-08-09T06:22:14.267Z,3044.00
2018-08-09T06:23:14.269Z,3160.00
2018-08-09T06:24:14.300Z,2848.00
2018-08-09T06:25:14.260Z,2768.00
2018-08-09T06:26:14.269Z,3036.00
2018-08-09T06:27:14.260Z,3364.00
2018-08-09T06:28:14.266Z,3620.00
2018-08-09T06:29:14.257Z,3880.00
2018-08-09T06:30:14.252Z,4224.00
2018-08-09T06:31:14.255Z,4532.00
2018-08-09T06:32:14.248Z,4740.00
2018-08-09T06:33:14.247Z,4724.00
2018-08-09T06:34:14.248Z,4544.00
2018-08-09T06:35:14.245Z,4272.00
2018-08-09T06:36:14.243Z,4140.00
2018-08-09T06:37:14.243Z,4004.00
2018-08-09T06:38:14.242Z,4072.00
2018-08-09T06:39:14.235Z,4284.00
2018-08-09T06:40:14.271Z,4656.00
2018-08-09T06:41:14.241Z,5168.00
2018-08-09T06:42:14.232Z,5996.00
2018-08-09T06:43:14.233Z,7420.00
2018-08-09T06:44:14.231Z,9060.00
2018-08-09T06:45:14.238Z,9976.00
2018-08-09T06:46:14.230Z,8644.00
2018-08-09T06:47:14.222Z,6588.00
2018-08-09T06:48:14.226Z,4716.00
2018-08-09T06:49:14.224Z,3584.00
2018-08-09T06:50:14.345Z,3108.00
2018-08-09T06:51:14.876Z,2932.00
2018-08-09T06:52:14.560Z,2948.00
2018-08-09T06:53:14.360Z,3112.00
2018-08-09T06:54:14.300Z,3064.00
2018-08-09T06:55:14.214Z,2784.00
2018-08-09T06:56:14.425Z,2628.00
2018-08-09T06:57:14.331Z,2448.00
2018-08-09T06:58:14.293Z,2448.00
2018-08-09T06:59:14.328Z,2620.00
2018-08-09T07:00:14.236Z,2852.00
2018-08-09T07:01:14.208Z,3268.00
2018-08-09T07:02:14.209Z,4040.00
2018-08-09T07:03:14.212Z,4952.00
2018-08-09T07:04:14.202Z,5484.00
2018-08-09T07:05:14.212Z,4944.00
2018-08-09T07:06:14.207Z,4280.00
2018-08-09T07:07:14.229Z,3760.00
2018-08-09T07:08:14.201Z,3604.00
2018-08-09T07:09:14.198Z,3440.00
2018-08-09T07:10:14.192Z,3516.00
2018-08-09T07:11:14.189Z,3676.00
2018-08-09T07:12:14.204Z,3784.00
2018-08-09T07:13:14.199Z,3992.00
2018-08-09T07:14:14.258Z,4192.00
2018-08-09T07:15:14.240Z,4392.00
2018-08-09T07:16:14.197Z,4104.00
2018-08-09T07:17:14.209Z,3480.00
2018-08-09T07:18:14.208Z,3076.00
2018-08-09T07:19:14.207Z,2852.00
2018-08-09T07:20:14.230Z,2672.00
2018-08-09T07:21:14.180Z,2600.00
2018-08-09T07:22:14.173Z,2708.00
2018-08-09T07:23:14.202Z,2972.00
2018-08-09T07:24:14.196Z,3204.00
2018-08-09T07:25:14.184Z,3316.00
2018-08-09T07:26:14.176Z,3468.00
2018-08-09T07:27:14.166Z,4060.00
2018-08-09T07:28:14.189Z,5276.00
2018-08-09T07:29:14.180Z,7168.00
2018-08-09T07:30:14.173Z,9588.00
2018-08-09T07:31:14.179Z,11876.00
2018-08-09T07:32:14.163Z,13856.00
2018-08-09T07:33:14.161Z,15084.00
2018-08-09T07:34:14.158Z,24640.00
2018-08-09T07:35:14.151Z,13316.00
2018-08-09T07:36:14.154Z,10116.00
2018-08-09T07:37:14.154Z,9004.00
2018-08-09T07:38:14.164Z,8772.00
2018-08-09T07:39:14.165Z,9048.00
2018-08-09T07:40:14.150Z,9424.00
2018-08-09T07:41:14.144Z,9960.00
2018-08-09T07:42:14.148Z,11152.00
2018-08-09T07:43:14.189Z,13268.00
2018-08-09T07:44:14.146Z,18208.00
2018-08-09T07:45:14.143Z,22432.00
2018-08-09T07:46:14.140Z,21696.00
2018-08-09T07:47:14.148Z,18976.00
2018-08-09T07:48:14.162Z,22560.00
2018-08-09T07:49:14.138Z,22528.00
2018-08-09T07:50:14.166Z,23200.00
2018-08-09T07:51:14.157Z,25664.00
2018-08-09T07:52:14.135Z,24256.00
2018-08-09T07:53:15.084Z,17120.00
2018-08-09T07:54:14.144Z,14180.00
2018-08-09T07:55:14.140Z,12384.00
2018-08-09T07:56:14.170Z,11332.00
2018-08-09T07:57:14.153Z,10612.00
2018-08-09T07:58:14.139Z,9864.00
2018-08-09T07:59:14.142Z,9264.00
2018-08-09T08:00:14.143Z,8676.00
2018-08-09T08:01:14.150Z,7996.00
2018-08-09T08:02:14.151Z,7508.00
2018-08-09T08:03:15.087Z,6980.00
2018-08-09T08:04:14.149Z,6884.00
2018-08-09T08:05:14.144Z,7468.00
2018-08-09T08:06:14.274Z,8240.00
2018-08-09T08:07:14.152Z,8324.00
2018-08-09T08:08:15.130Z,7212.00
2018-08-09T08:09:14.159Z,6036.00
2018-08-09T08:10:14.180Z,5840.00
2018-08-09T08:11:14.150Z,5664.00
2018-08-09T08:12:14.177Z,5332.00
2018-08-09T08:13:14.154Z,5104.00
2018-08-09T08:14:14.151Z,4884.00
2018-08-09T08:15:14.149Z,4744.00
2018-08-09T08:16:14.149Z,4752.00
2018-08-09T08:17:14.152Z,4988.00
2018-08-09T08:18:14.159Z,5732.00
2018-08-09T08:19:14.149Z,6560.00
2018-08-09T08:20:14.156Z,6968.00
2018-08-09T08:21:14.160Z,7284.00
2018-08-09T08:22:14.149Z,8024.00
2018-08-09T08:23:14.147Z,9308.00
2018-08-09T08:24:14.150Z,10980.00
2018-08-09T08:25:14.152Z,12652.00
2018-08-09T08:26:14.147Z,13576.00
2018-08-09T08:27:14.179Z,13752.00
2018-08-09T08:28:14.156Z,13584.00
2018-08-09T08:29:14.148Z,13648.00
2018-08-09T08:30:14.184Z,14400.00
2018-08-09T08:31:14.147Z,15548.00
2018-08-09T08:32:14.147Z,16504.00
2018-08-09T08:33:14.148Z,17504.00
2018-08-09T08:34:14.149Z,18304.00
2018-08-09T08:35:14.154Z,20512.00
2018-08-09T08:36:14.154Z,36832.00
2018-08-09T08:37:14.145Z,42816.00
2018-08-09T08:38:14.148Z,33984.00
2018-08-09T08:39:14.148Z,55968.00
2018-08-09T08:40:14.160Z,52320.00
2018-08-09T08:41:14.172Z,49280.00
2018-08-09T08:42:14.159Z,41408.00
2018-08-09T08:43:14.158Z,25152.00
2018-08-09T08:44:14.170Z,47840.00
2018-08-09T08:45:14.147Z,52672.00
2018-08-09T08:46:14.152Z,52672.00
2018-08-09T08:47:14.158Z,51744.00
2018-08-09T08:48:14.198Z,50688.00
2018-08-09T08:49:14.176Z,43424.00
2018-08-09T08:50:14.169Z,38432.00
2018-08-09T08:51:14.161Z,39392.00
2018-08-09T08:52:14.164Z,26848.00
2018-08-09T08:53:14.222Z,28608.00
2018-08-09T08:54:14.170Z,25568.00
2018-08-09T08:55:14.263Z,36672.00
2018-08-09T08:56:14.171Z,26304.00
2018-08-09T08:57:14.175Z,20992.00
2018-08-09T08:58:14.181Z,16952.00
2018-08-09T08:59:14.202Z,17952.00
2018-08-09T09:00:14.193Z,30144.00
2018-08-09T09:01:14.191Z,21440.00
2018-08-09T09:02:14.201Z,21344.00
2018-08-09T09:03:14.241Z,18688.00
2018-08-09T09:04:14.251Z,21600.00
2018-08-09T09:05:14.359Z,15896.00
2018-08-09T09:06:14.227Z,15988.00
2018-08-09T09:07:14.225Z,20672.00
2018-08-09T09:08:14.254Z,20288.00
2018-08-09T09:09:14.236Z,19616.00
2018-08-09T09:10:14.218Z,13988.00
2018-08-09T09:11:14.219Z,15076.00
2018-08-09T09:12:14.224Z,24960.00
2018-08-09T09:13:14.226Z,56832.00
2018-08-09T09:14:14.227Z,56640.00
2018-08-09T09:15:14.228Z,55232.00
2018-08-09T09:16:14.238Z,53760.00
2018-08-09T09:17:14.236Z,57216.00
2018-08-09T09:18:14.240Z,48544.00
2018-08-09T09:19:14.297Z,10432.00
2018-08-09T09:20:14.243Z,9628.00
2018-08-09T09:21:14.249Z,9216.00
2018-08-09T09:22:14.257Z,9916.00
2018-08-09T09:23:14.252Z,11832.00
2018-08-09T09:24:14.255Z,12680.00
2018-08-09T09:25:14.264Z,12164.00
2018-08-09T09:26:14.260Z,11360.00
2018-08-09T09:27:14.267Z,11044.00
2018-08-09T09:28:16.138Z,11436.00
2018-08-09T09:29:14.275Z,12228.00
2018-08-09T09:30:14.272Z,12720.00
2018-08-09T09:31:14.277Z,13136.00
2018-08-09T09:32:14.289Z,15732.00
2018-08-09T09:33:14.306Z,36288.00
2018-08-09T09:34:14.281Z,24384.00
2018-08-09T09:35:14.286Z,20064.00
2018-08-09T09:36:14.288Z,19200.00
2018-08-09T09:37:14.294Z,21408.00
2018-08-09T09:38:14.291Z,64192.00
2018-08-09T09:39:14.299Z,25632.00
2018-08-09T09:40:14.298Z,24512.00
2018-08-09T09:41:15.194Z,24992.00
2018-08-09T09:42:15.151Z,21280.00
2018-08-09T09:43:14.304Z,25568.00
2018-08-09T09:44:14.306Z,68160.00
2018-08-09T09:45:14.321Z,76256.00
2018-08-09T09:46:14.315Z,74784.00
2018-08-09T09:47:14.314Z,73376.00
2018-08-09T09:48:14.313Z,70464.00
2018-08-09T09:49:14.320Z,75136.00
2018-08-09T09:50:14.319Z,76640.00
2018-08-09T09:51:14.326Z,77824.00
2018-08-09T09:52:14.329Z,70656.00
2018-08-09T09:53:14.333Z,74016.00
2018-08-09T09:54:14.331Z,65792.00
2018-08-09T09:55:14.336Z,77440.00
2018-08-09T09:56:14.338Z,68160.00
2018-08-09T09:57:14.350Z,76640.00
2018-08-09T09:58:14.350Z,78304.00
2018-08-09T09:59:14.357Z,79904.00
2018-08-09T10:00:14.380Z,77760.00
2018-08-09T10:01:14.365Z,79776.00
2018-08-09T10:02:14.369Z,31328.00
2018-08-09T10:03:14.371Z,50144.00
2018-08-09T10:04:14.377Z,30816.00
2018-08-09T10:05:14.382Z,26240.00
2018-08-09T10:06:14.392Z,28480.00
2018-08-09T10:07:14.410Z,71040.00
2018-08-09T10:08:14.407Z,34368.00
2018-08-09T10:09:14.402Z,24096.00
2018-08-09T10:10:14.407Z,24960.00
2018-08-09T10:11:14.413Z,23872.00
2018-08-09T10:12:14.455Z,24096.00
2018-08-09T10:13:14.425Z,26880.00
2018-08-09T10:14:14.446Z,29280.00
2018-08-09T10:15:14.433Z,48416.00
2018-08-09T10:16:14.437Z,80256.00
2018-08-09T10:17:14.446Z,81920.00
2018-08-09T10:18:14.452Z,58240.00
2018-08-09T10:19:14.461Z,30336.00
2018-08-09T10:20:14.474Z,82656.00
2018-08-09T10:21:14.467Z,74784.00
2018-08-09T10:22:14.492Z,62304.00
2018-08-09T10:23:14.490Z,68704.00
2018-08-09T10:24:14.501Z,67232.00
2018-08-09T10:25:14.478Z,55584.00
2018-08-09T10:26:14.501Z,80896.00
2018-08-09T10:27:14.487Z,79136.00
2018-08-09T10:28:14.498Z,76640.00
2018-08-09T10:29:14.504Z,78208.00
2018-08-09T10:30:14.503Z,81696.00
2018-08-09T10:31:14.525Z,83200.00
2018-08-09T10:32:14.530Z,81344.00
2018-08-09T10:33:14.566Z,78592.00
2018-08-09T10:34:14.527Z,78304.00
2018-08-09T10:35:14.542Z,78112.00
2018-08-09T10:36:14.540Z,78304.00
2018-08-09T10:37:14.546Z,78368.00
2018-08-09T10:38:14.548Z,78624.00
2018-08-09T10:39:14.552Z,80608.00
2018-08-09T10:40:14.559Z,77824.00
2018-08-09T10:41:14.570Z,77184.00
2018-08-09T10:42:14.581Z,78144.00
2018-08-09T10:43:14.580Z,78912.00
2018-08-09T10:44:14.590Z,80128.00
2018-08-09T10:45:14.594Z,78912.00
2018-08-09T10:46:14.597Z,78464.00
2018-08-09T10:47:14.601Z,78688.00
2018-08-09T10:48:14.620Z,80608.00
2018-08-09T10:49:14.622Z,80864.00
2018-08-09T10:50:14.624Z,80544.00
2018-08-09T10:51:14.640Z,81888.00
2018-08-09T10:52:14.638Z,83136.00
2018-08-09T10:53:14.643Z,83680.00
2018-08-09T10:54:14.655Z,82656.00
2018-08-09T10:55:14.660Z,82912.00
2018-08-09T10:56:14.674Z,82624.00
2018-08-09T10:57:14.676Z,82880.00
2018-08-09T10:58:14.686Z,84736.00
2018-08-09T10:59:14.690Z,88256.00
2018-08-09T11:00:14.692Z,90976.00
2018-08-09T11:01:14.703Z,72928.00
2018-08-09T11:02:14.710Z,63360.00
2018-08-09T11:03:14.715Z,62976.00
2018-08-09T11:04:14.720Z,68672.00
2018-08-09T11:05:14.728Z,48800.00
2018-08-09T11:06:14.737Z,38208.00
2018-08-09T11:07:14.746Z,29632.00
2018-08-09T11:08:14.752Z,26048.00
2018-08-09T11:09:14.761Z,27008.00
2018-08-09T11:10:14.772Z,28096.00
2018-08-09T11:11:14.776Z,29600.00
2018-08-09T11:12:14.783Z,30176.00
2018-08-09T11:13:14.791Z,34432.00
2018-08-09T11:14:15.711Z,45824.00
2018-08-09T11:15:14.805Z,45088.00
2018-08-09T11:16:14.812Z,66848.00
2018-08-09T11:17:14.816Z,79840.00
2018-08-09T11:18:14.824Z,63104.00
2018-08-09T11:19:14.829Z,91392.00
2018-08-09T11:20:14.834Z,82048.00
2018-08-09T11:21:14.845Z,59840.00
2018-08-09T11:22:14.847Z,57504.00
2018-08-09T11:23:14.852Z,57376.00
2018-08-09T11:24:14.862Z,59648.00
2018-08-09T11:25:14.871Z,74816.00
2018-08-09T11:26:14.876Z,91680.00
2018-08-09T11:27:14.881Z,90176.00
2018-08-09T11:28:14.887Z,88640.00
2018-08-09T11:29:14.903Z,87872.00
2018-08-09T11:30:14.933Z,88032.00
2018-08-09T11:31:14.916Z,87552.00
2018-08-09T11:32:14.917Z,87840.00
2018-08-09T11:33:14.922Z,88128.00
2018-08-09T11:34:14.926Z,86880.00
2018-08-09T11:35:14.934Z,86528.00
2018-08-09T11:36:14.941Z,87328.00
2018-08-09T11:37:14.950Z,89600.00
2018-08-09T11:38:14.961Z,90048.00
2018-08-09T11:39:14.963Z,89024.00
2018-08-09T11:40:14.978Z,85728.00
2018-08-09T11:41:14.985Z,80160.00
2018-08-09T11:42:15.002Z,87648.00
2018-08-09T11:43:15.018Z,83392.00
2018-08-09T11:44:15.004Z,86752.00
2018-08-09T11:45:15.023Z,85152.00
2018-08-09T11:46:15.020Z,85792.00
2018-08-09T11:47:15.046Z,86496.00
2018-08-09T11:48:15.036Z,87840.00
2018-08-09T11:49:15.080Z,88576.00
2018-08-09T11:50:15.044Z,86976.00
2018-08-09T11:51:15.059Z,83104.00
2018-08-09T11:52:15.068Z,83776.00
2018-08-09T11:53:15.076Z,83008.00
2018-08-09T11:54:15.079Z,84480.00
2018-08-09T11:55:15.083Z,86208.00
2018-08-09T11:56:15.161Z,88064.00
2018-08-09T11:57:15.163Z,87552.00
2018-08-09T11:58:15.105Z,89504.00
2018-08-09T11:59:15.111Z,90272.00
2018-08-09T12:00:15.149Z,90400.00
2018-08-09T12:01:15.130Z,90592.00
2018-08-09T12:02:15.148Z,89376.00
2018-08-09T12:03:15.162Z,91776.00
2018-08-09T12:04:15.148Z,92000.00
2018-08-09T12:05:15.160Z,91392.00
2018-08-09T12:06:15.200Z,91808.00
2018-08-09T12:07:15.176Z,91520.00
2018-08-09T12:08:15.178Z,89568.00
2018-08-09T12:09:15.199Z,69984.00
2018-08-09T12:10:15.193Z,58560.00
2018-08-09T12:11:15.201Z,70560.00
2018-08-09T12:12:15.213Z,42240.00
2018-08-09T12:13:15.213Z,85120.00
2018-08-09T12:14:15.299Z,81376.00
2018-08-09T12:15:15.260Z,78176.00
2018-08-09T12:16:15.243Z,78688.00
2018-08-09T12:17:15.243Z,78592.00
2018-08-09T12:18:15.268Z,76768.00
2018-08-09T12:19:15.259Z,75680.00
2018-08-09T12:20:15.263Z,69792.00